Airfield :
LOGIN :

Register | Disclaimer

   EN    FR    IT 

 










Legend :    VFR   Marginal VFR   IFR   Intensive IFR   Very Intensive IFR
Visi :
Ceiling :
>= 8 km
>= 3000ft
5 to 8 km
1000 to 3000 ft
1500m to 5 km
500 to 1000 ft
800 to 1500m
200 to 500 ft
< 800m
< 200 ft
Symbols :   Thunderstorms  Fog  Heavy snow  Heavy precipitations  Wind > 20 kt
SIGMETs :     Misc.  Thunderstorms  Icing  Turbulence  Mountain Waves  Volcanic Ashes






- Airport Elevation : 1197 ft
- IATA code : SPM


ETAD - Spangdahlem Ab

CURRENT METAR :
  • 052356Z AUTO 00000KT 9999 CLR 18/07 A3009 RMK AO2 SLP165 T01780066 10258 20176 51005 $

EXPIRED METARs :
  • 052256Z AUTO 00000KT 9999 CLR 19/07 A3009 RMK AO2 SLP165 T01880066 402780100
  • 052156Z AUTO 00000KT 9999 CLR 20/07 A3009 RMK AO2 SLP165 T01980069 $
  • 052056Z AUTO 00000KT 9999 CLR 21/07 A3008 RMK AO2 SLP162 T02090068 52014

TAF TAF ETAD
Valid from the 05 at 20:00 until the 07 at 02:00 UTC


052000Z 0520/0702 VRB04KT 9999 SKC QNH3006INS
BECMG 0605/0606 18006KT 9999 FEW120 QNH3012INS
BECMG 0617/0618 VRB04KT 9999 SKC QNH3014INS TX30/0614Z TN10/0603Z LAST NO AMDS AFT 0520 NEXT 0604



MET'MAP, your aeronautical weather chart ! - Copyright ORBIFLY December 2007 - Disclaimer

ORBIFLY MET'MAP TEAM :

Programming & Development : Alexandra Zaïnal
Concept & original design : Baudouin d'Aumeries
Assistance for programming : Marc-Olivier Méhu
Technical & hardware support : Manuel Goepfert

Contact : metmap@orbifly.com




SOURCES & CREDITS :

   NOAA